METAR Data
IDs: Format: Raw Decoded Include TAF

Data at: 1500 UTC 10 Aug 2022

KIZA 101455Z AUTO 00000KT 2 1/2SM BR OVC003 13/13 A3005 RMK AO2 VIS 1 1/2V5
KIZA 101435Z AUTO 00000KT M1/4SM FG OVC003 13/13 A3004 RMK AO2
KIZA 101415Z AUTO 00000KT 1/4SM FG OVC003 13/13 A3004 RMK AO2
KIZA 101355Z AUTO 00000KT M1/4SM FG OVC002 13/13 A3003 RMK AO2
KIZA 101335Z AUTO 00000KT M1/4SM FG OVC002 13/13 A3003 RMK AO2
KIZA 101315Z AUTO 00000KT M1/4SM FG OVC002 12/12 A3002 RMK AO2
KIZA 101255Z AUTO 00000KT M1/4SM FG OVC002 12/12 A3002 RMK AO2
KIZA 101235Z AUTO 00000KT M1/4SM FG OVC002 12/12 A3002 RMK AO2
KIZA 101215Z AUTO 00000KT 1/4SM FG OVC002 13/13 A3002 RMK AO2
KIZA 101155Z AUTO 00000KT 1/4SM FG OVC002 13/13 A3002 RMK AO2
KIZA 101135Z AUTO 00000KT 1/4SM FG OVC002 13/13 A3002 RMK AO2
KIZA 101115Z AUTO 00000KT 8SM OVC002 13/13 A3002 RMK AO2
KIZA 101055Z AUTO 00000KT 10SM OVC003 13/13 A3002 RMK AO2
KIZA 101035Z AUTO 00000KT 10SM BKN003 13/13 A3003 RMK AO2
KIZA 101015Z AUTO 19003KT 10SM CLR 13/13 A3003 RMK AO2
KIZA 100955Z AUTO 00000KT 10SM CLR 14/13 A3002 RMK AO2
KIZA 100935Z AUTO 00000KT 10SM CLR 14/13 A3002 RMK AO2
KIZA 100915Z AUTO 00000KT 10SM CLR 14/13 A3002 RMK AO2
KIZA 100855Z AUTO 00000KT 10SM CLR 14/14 A3002 RMK AO2
KIZA 100835Z AUTO 00000KT 10SM CLR 14/14 A3002 RMK AO2
KIZA 100815Z AUTO 24004KT 10SM CLR 14/14 A3002 RMK AO2
KIZA 100755Z AUTO 21004KT 10SM CLR 14/13 A3002 RMK AO2
KIZA 100735Z AUTO 00000KT 10SM CLR 15/14 A3002 RMK AO2
KIZA 100715Z AUTO 00000KT 10SM CLR 15/14 A3002 RMK AO2
KIZA 100655Z AUTO 23003KT 10SM CLR 15/13 A3002 RMK AO2
KIZA 100635Z AUTO 22003KT 10SM CLR 15/13 A3002 RMK AO2
KIZA 100615Z AUTO 00000KT 10SM CLR 15/13 A3002 RMK AO2
KIZA 100555Z AUTO 24003KT 10SM CLR 16/14 A3002 RMK AO2
KIZA 100535Z AUTO 00000KT 10SM CLR 16/13 A3002 RMK AO2
KIZA 100515Z AUTO 10SM CLR 16/13 A3001 RMK AO2
KIZA 100455Z AUTO 24005KT 10SM CLR 17/13 A3001 RMK AO2
KIZA 100435Z AUTO 22004KT 9SM CLR 17/13 A3000 RMK AO2
KIZA 100415Z AUTO 23003KT 10SM SCT032 17/13 A3000 RMK AO2
KIZA 100355Z AUTO 26005KT 10SM BKN032 18/13 A2999 RMK AO2
KIZA 100335Z AUTO 25005KT 10SM FEW034 18/13 A2999 RMK AO2
KIZA 100315Z AUTO 28009KT 10SM CLR 19/13 A2998 RMK AO2
KIZA 100255Z AUTO 25008KT 10SM CLR 19/13 A2998 RMK AO2
KIZA 100235Z AUTO 24008KT 10SM CLR 20/13 A2997 RMK AO2
KIZA 100215Z AUTO 24007G12KT 10SM CLR 22/13 A2997 RMK AO2
KIZA 100155Z AUTO 24009KT 10SM CLR 23/13 A2996 RMK AO2
KIZA 100135Z AUTO 24010KT 10SM CLR 23/13 A2995 RMK AO2
KIZA 100115Z AUTO 25009KT 10SM CLR 24/12 A2995 RMK AO2
KIZA 100055Z AUTO 25012KT 10SM CLR 25/12 A2995 RMK AO2
KIZA 100035Z AUTO 26011KT 230V290 10SM CLR 26/12 A2994 RMK AO2
KIZA 100015Z AUTO 26013KT 10SM CLR 26/12 A2994 RMK AO2
KIZA 092355Z AUTO 28012KT 10SM CLR 26/13 A2994 RMK AO2
KIZA 092335Z AUTO 27013KT 10SM CLR 27/13 A2994 RMK AO2
KIZA 092315Z AUTO 28013KT 10SM CLR 28/13 A2994 RMK AO2
KIZA 092255Z AUTO 28010G16KT 250V310 10SM CLR 28/13 A2994 RMK AO2
KIZA 092235Z AUTO 28013KT 10SM CLR 29/13 A2994 RMK AO2 LTG DSNT NE
KIZA 092215Z AUTO 28014KT 10SM CLR 29/12 A2994 RMK AO2
KIZA 092155Z AUTO 27014KT 10SM CLR 30/13 A2994 RMK AO2
KIZA 092135Z AUTO 27013KT 10SM CLR 29/13 A2994 RMK AO2
KIZA 092115Z AUTO 28012KT 10SM CLR 31/12 A2994 RMK AO2
KIZA 092055Z AUTO 25006G11KT 10SM CLR 31/12 A2995 RMK AO2
KIZA 092035Z AUTO 24006KT 10SM CLR 31/12 A2995 RMK AO2
KIZA 092015Z AUTO 26006G11KT 10SM CLR 29/12 A2996 RMK AO2
KIZA 091955Z AUTO 25005KT 10SM CLR 28/12 A2996 RMK AO2
KIZA 091935Z AUTO 25004KT 9SM CLR 27/14 A2997 RMK AO2
KIZA 091915Z AUTO 29006KT 10SM CLR 26/14 A2998 RMK AO2
KIZA 091855Z AUTO VRB04KT 10SM CLR 25/14 A2999 RMK AO2
KIZA 091835Z AUTO 26004KT 10SM CLR 24/15 A2999 RMK AO2
KIZA 091815Z AUTO VRB04KT 10SM CLR 22/15 A3000 RMK AO2
KIZA 091755Z AUTO VRB03KT 10SM CLR 21/15 A3000 RMK AO2
KIZA 091735Z AUTO VRB03KT 10SM CLR 20/15 A3001 RMK AO2
KIZA 091715Z AUTO VRB04KT 10SM CLR 18/15 A3001 RMK AO2
KIZA 091655Z AUTO 24004KT 9SM FEW007 17/14 A3001 RMK AO2
KIZA 091635Z AUTO VRB03KT 10SM BKN006 16/14 A3001 RMK AO2
KIZA 091615Z AUTO VRB03KT 9SM OVC006 15/14 A3001 RMK AO2
KIZA 091555Z AUTO VRB04KT 9SM OVC006 15/14 A3001 RMK AO2
KIZA 091535Z AUTO 00000KT 8SM OVC006 15/14 A3001 RMK AO2
KIZA 091515Z AUTO 00000KT 8SM OVC005 15/14 A3000 RMK AO2
KIZA 091455Z AUTO 00000KT 7SM OVC005 14/14 A3000 RMK AO2
KIZA 091435Z AUTO 00000KT 7SM OVC004 14/14 A3000 RMK AO2
KIZA 091415Z AUTO 05003KT 6SM BR OVC004 14/14 A2999 RMK AO2
KIZA 091355Z AUTO 00000KT 6SM BR OVC004 14/14 A2999 RMK AO2
KIZA 091335Z AUTO 00000KT 8SM OVC004 14/14 A2999 RMK AO2
KIZA 091315Z AUTO 03003KT 8SM OVC004 14/14 A2998 RMK AO2
KIZA 091255Z AUTO 00000KT 7SM OVC004 14/14 A2998 RMK AO2
KIZA 091235Z AUTO 35003KT 7SM OVC004 14/14 A2997 RMK AO2
KIZA 091215Z AUTO 00000KT 6SM BR OVC004 14/14 A2997 RMK AO2
KIZA 091155Z AUTO 00000KT 6SM BR OVC003 14/14 A2997 RMK AO2
KIZA 091135Z AUTO 27004KT 6SM BR OVC003 14/14 A2996 RMK AO2
KIZA 091115Z AUTO 24003KT 8SM OVC003 13/14 A2996 RMK AO2
KIZA 091055Z AUTO 28004KT 9SM OVC004 14/14 A2996 RMK AO2
KIZA 091035Z AUTO 25004KT 9SM OVC004 14/14 A2995 RMK AO2
KIZA 091015Z AUTO 00000KT 10SM OVC003 14/13 A2995 RMK AO2
KIZA 090955Z AUTO 00000KT 10SM OVC003 14/14 A2995 RMK AO2
KIZA 090935Z AUTO 00000KT 10SM BKN003 14/14 A2995 RMK AO2
KIZA 090915Z AUTO 00000KT 10SM BKN004 BKN024 BKN031 14/14 A2996 RMK AO2
KIZA 090855Z AUTO 00000KT 10SM FEW004 SCT025 BKN032 14/14 A2996 RMK AO2
KIZA 090835Z AUTO 00000KT 10SM FEW027 SCT033 14/14 A2997 RMK AO2
KIZA 090815Z AUTO 00000KT 10SM FEW021 14/14 A2997 RMK AO2
KIZA 090755Z AUTO 23003KT 10SM FEW021 15/14 A2997 RMK AO2
KIZA 090735Z AUTO 24003KT 10SM FEW020 FEW030 15/14 A2997 RMK AO2
KIZA 090715Z AUTO 00000KT 10SM FEW029 15/14 A2998 RMK AO2
KIZA 090655Z AUTO 22004KT 10SM FEW028 15/14 A2997 RMK AO2
KIZA 090635Z AUTO 00000KT 10SM CLR 15/14 A2997 RMK AO2
KIZA 090615Z AUTO 23004KT 10SM FEW023 15/14 A2997 RMK AO2
KIZA 090555Z AUTO 22004KT 10SM FEW023 16/14 A2997 RMK AO2
KIZA 090535Z AUTO 00000KT 10SM CLR 16/14 A2998 RMK AO2
KIZA 090515Z AUTO 24005KT 10SM FEW024 16/14 A2997 RMK AO2
KIZA 090455Z AUTO 23003KT 10SM CLR 17/14 A2997 RMK AO2
KIZA 090435Z AUTO 24004KT 10SM CLR 17/14 A2997 RMK AO2
KIZA 090415Z AUTO 24005KT 10SM CLR 17/14 A2996 RMK AO2
KIZA 090355Z AUTO 24005KT 10SM CLR 17/14 A2996 RMK AO2
KIZA 090335Z AUTO 24005KT 10SM CLR 18/14 A2995 RMK AO2
KIZA 090315Z AUTO 25006KT 10SM CLR 19/14 A2994 RMK AO2